Time;durP1;ratioP1;P1;durP2;ratioP2;P2;SDS_P1;SDS_P2;PMS_P1;PMS_P2;Temp;Humidity;BMP_temperature;BMP_pressure;BME280_temperature;BME280_humidity;BME280_pressure;Samples;Min_cycle;Max_cycle;Signal;HPM_P1;HPM_P2
2021/12/23 00:00:58;;;;;;;13.03;10.13;;;2.20;72.90;;;;;;6250518;28;20498;-64
2021/12/23 00:04:03;;;;;;;16.80;9.67;;;2.20;73.20;;;;;;6250705;28;20540;-64
2021/12/23 00:07:06;;;;;;;12.40;10.97;;;2.10;73.70;;;;;;6250733;28;20554;-64
2021/12/23 00:10:11;;;;;;;19.70;11.13;;;2.10;73.90;;;;;;6258562;28;20474;-64
2021/12/23 00:13:14;;;;;;;21.77;12.17;;;2.10;73.80;;;;;;6275088;28;20528;-64
2021/12/23 00:16:19;;;;;;;15.03;11.97;;;2.00;74.20;;;;;;6277863;28;20466;-64
2021/12/23 00:19:36;;;;;;;17.30;11.10;;;2.10;74.70;;;;;;6254282;28;20560;-63
2021/12/23 00:26:03;;;;;;;11.10;9.00;;;2.10;74.00;;;;;;6250149;28;20479;-62
2021/12/23 00:29:06;;;;;;;12.50;8.93;;;2.00;73.50;;;;;;6250573;28;20475;-63
2021/12/23 00:32:11;;;;;;;16.27;11.40;;;1.90;73.50;;;;;;6249988;28;20482;-63
2021/12/23 00:35:15;;;;;;;11.33;9.83;;;1.80;73.80;;;;;;6250063;28;20819;-63
2021/12/23 00:38:23;;;;;;;12.30;9.60;;;1.80;74.00;;;;;;6250652;28;20435;-63
2021/12/23 00:41:30;;;;;;;13.70;9.90;;;1.70;73.90;;;;;;6250348;28;20498;-63
2021/12/23 00:44:34;;;;;;;12.20;9.30;;;1.60;73.80;;;;;;6250521;28;20513;-63
2021/12/23 00:47:38;;;;;;;11.37;10.17;;;1.50;74.00;;;;;;6250583;28;20474;-63
2021/12/23 00:50:42;;;;;;;13.23;10.17;;;1.40;74.20;;;;;;6250283;28;20784;-63
2021/12/23 00:53:49;;;;;;;14.00;9.67;;;1.40;74.80;;;;;;6250751;28;20470;-63
2021/12/23 00:56:52;;;;;;;11.93;9.53;;;1.30;75.40;;;;;;6250338;28;20957;-63
2021/12/23 00:59:55;;;;;;;13.30;10.83;;;1.20;75.50;;;;;;6250424;28;20471;-63
2021/12/23 01:03:00;;;;;;;12.27;10.77;;;1.20;75.50;;;;;;6250401;28;20466;-63
2021/12/23 01:06:05;;;;;;;12.17;9.23;;;1.20;75.60;;;;;;6250407;28;20535;-63
2021/12/23 01:09:08;;;;;;;13.07;10.53;;;1.20;75.50;;;;;;6250484;28;20467;-63
2021/12/23 01:12:15;;;;;;;13.23;10.90;;;1.20;75.80;;;;;;6250303;28;20589;-63
2021/12/23 01:15:50;;;;;;;13.43;10.97;;;1.10;76.10;;;;;;6249997;28;20475;-63
2021/12/23 01:18:54;;;;;;;13.83;10.37;;;1.10;76.30;;;;;;6249076;28;20477;-63
2021/12/23 01:21:59;;;;;;;14.20;10.20;;;1.00;76.40;;;;;;6249649;28;21100;-64
2021/12/23 01:25:02;;;;;;;13.23;10.30;;;1.00;76.80;;;;;;6250000;28;20548;-64
2021/12/23 01:28:06;;;;;;;13.63;10.90;;;1.00;76.90;;;;;;6250716;28;20979;-64
2021/12/23 01:31:09;;;;;;;12.93;10.83;;;1.00;76.90;;;;;;6250045;28;20509;-64
2021/12/23 01:34:12;;;;;;;11.97;10.23;;;1.00;76.90;;;;;;6250312;28;20545;-64
2021/12/23 01:37:17;;;;;;;16.17;11.20;;;1.00;77.00;;;;;;6242304;28;20481;-64
2021/12/23 01:40:24;;;;;;;12.73;10.43;;;1.00;77.00;;;;;;6249706;28;20490;-65
2021/12/23 01:43:27;;;;;;;13.50;9.70;;;1.00;77.90;;;;;;6249879;28;20475;-64
2021/12/23 01:46:30;;;;;;;18.93;13.40;;;1.00;78.00;;;;;;6249290;28;20482;-64
2021/12/23 01:49:33;;;;;;;20.00;15.30;;;1.00;78.30;;;;;;6249182;28;21037;-64
2021/12/23 01:52:38;;;;;;;20.80;14.30;;;0.90;78.90;;;;;;6249276;28;20997;-64
2021/12/23 01:55:43;;;;;;;18.97;14.83;;;0.90;79.50;;;;;;6253550;28;20796;-64
2021/12/23 01:58:46;;;;;;;18.03;14.20;;;0.80;80.00;;;;;;6253382;28;20475;-64
2021/12/23 02:01:49;;;;;;;16.73;13.03;;;0.80;80.20;;;;;;6253506;28;20466;-64
2021/12/23 02:04:53;;;;;;;19.00;12.90;;;0.70;80.50;;;;;;6253199;28;20584;-64
2021/12/23 02:07:58;;;;;;;16.20;13.63;;;0.80;80.80;;;;;;6253270;28;20482;-64
2021/12/23 02:11:02;;;;;;;20.77;13.10;;;0.70;80.80;;;;;;6268359;28;20477;-64
2021/12/23 02:14:05;;;;;;;14.50;12.93;;;0.70;80.70;;;;;;6278580;28;20490;-64
2021/12/23 02:17:08;;;;;;;18.23;12.80;;;0.70;81.00;;;;;;6274512;28;20506;-63
2021/12/23 02:20:15;;;;;;;15.93;12.00;;;0.60;81.00;;;;;;6254167;28;20459;-64
2021/12/23 02:23:18;;;;;;;18.63;13.70;;;0.70;81.20;;;;;;6253779;28;20483;-64
2021/12/23 02:26:21;;;;;;;19.40;13.53;;;0.70;81.00;;;;;;6253258;28;20522;-64
2021/12/23 02:29:24;;;;;;;17.40;12.07;;;0.70;81.10;;;;;;6253171;28;20478;-64
2021/12/23 02:32:28;;;;;;;15.27;12.03;;;0.60;80.40;;;;;;6253457;28;20443;-64
2021/12/23 02:35:32;;;;;;;18.03;12.73;;;0.60;80.00;;;;;;6252809;28;20459;-63
2021/12/23 02:38:35;;;;;;;20.13;13.30;;;0.70;80.10;;;;;;6247997;28;20460;-64
2021/12/23 02:41:42;;;;;;;17.70;11.93;;;0.60;80.40;;;;;;6253139;28;20482;-63
2021/12/23 02:44:45;;;;;;;15.93;12.50;;;0.60;80.70;;;;;;6253104;28;20470;-63
2021/12/23 02:47:48;;;;;;;16.40;13.27;;;0.60;80.70;;;;;;6252489;28;20494;-64
2021/12/23 02:50:55;;;;;;;14.83;11.87;;;0.50;80.50;;;;;;6252409;28;20486;-64
2021/12/23 02:53:58;;;;;;;19.60;12.27;;;0.50;80.60;;;;;;6252367;28;20483;-63
2021/12/23 02:57:01;;;;;;;16.33;12.07;;;0.50;80.50;;;;;;6252709;28;20470;-63
2021/12/23 03:00:07;;;;;;;13.93;11.07;;;0.40;79.90;;;;;;6252480;28;20548;-63
2021/12/23 03:03:10;;;;;;;12.90;10.33;;;0.40;80.10;;;;;;6252349;28;20479;-63
2021/12/23 03:06:18;;;;;;;15.00;11.37;;;0.40;80.20;;;;;;6251462;28;20540;-63
2021/12/23 03:09:21;;;;;;;14.63;11.90;;;0.40;80.30;;;;;;6253146;28;20490;-63
2021/12/23 03:12:24;;;;;;;16.93;12.10;;;0.30;80.30;;;;;;6277444;28;20477;-63
2021/12/23 03:15:27;;;;;;;16.40;11.97;;;0.30;80.30;;;;;;6277771;28;20478;-63
2021/12/23 03:18:31;;;;;;;14.70;11.37;;;0.20;80.20;;;;;;6261646;28;20471;-63
2021/12/23 03:21:36;;;;;;;15.60;11.20;;;0.20;80.10;;;;;;6251488;28;20813;-63
2021/12/23 03:24:39;;;;;;;14.87;12.23;;;0.20;80.30;;;;;;6251273;28;20549;-63
2021/12/23 03:27:42;;;;;;;15.60;11.50;;;0.10;80.20;;;;;;6251588;28;20982;-63
2021/12/23 03:30:46;;;;;;;14.67;11.90;;;0.10;80.70;;;;;;6251880;28;20482;-63
2021/12/23 03:33:49;;;;;;;15.17;11.20;;;0.00;81.20;;;;;;6251475;28;20471;-63
2021/12/23 03:36:54;;;;;;;15.70;12.83;;;0.00;81.10;;;;;;6251791;28;20467;-63
2021/12/23 03:39:57;;;;;;;15.93;12.27;;;0.00;81.40;;;;;;6251382;28;20475;-63
2021/12/23 03:43:00;;;;;;;15.90;11.40;;;-0.10;81.20;;;;;;6241906;28;20478;-63
2021/12/23 03:46:04;;;;;;;17.90;12.00;;;-0.10;81.30;;;;;;6251629;28;20874;-63
2021/12/23 03:49:08;;;;;;;18.63;12.80;;;-0.10;81.70;;;;;;6250704;28;20479;-63
2021/12/23 03:52:14;;;;;;;17.40;11.67;;;-0.10;82.00;;;;;;6251259;28;20525;-63
2021/12/23 03:55:17;;;;;;;23.17;13.73;;;-0.10;82.20;;;;;;6250913;28;20490;-63
2021/12/23 03:58:21;;;;;;;18.40;12.10;;;-0.20;82.30;;;;;;6250939;28;20948;-63
2021/12/23 04:01:26;;;;;;;18.33;12.73;;;-0.20;82.60;;;;;;6251131;28;20474;-63
2021/12/23 04:04:29;;;;;;;17.37;13.00;;;-0.20;82.80;;;;;;6250673;28;20509;-64
2021/12/23 04:07:34;;;;;;;18.23;11.90;;;-0.20;82.90;;;;;;6250744;28;20471;-63
2021/12/23 04:10:37;;;;;;;17.00;13.03;;;-0.40;83.10;;;;;;6262151;28;20473;-63
2021/12/23 04:13:40;;;;;;;17.80;13.40;;;-0.40;83.70;;;;;;6275070;28;20474;-63
2021/12/23 04:16:43;;;;;;;19.23;13.20;;;-0.30;83.90;;;;;;6273922;28;20473;-63
2021/12/23 04:19:48;;;;;;;17.30;12.00;;;-0.30;84.20;;;;;;6250837;28;20482;-63
2021/12/23 04:22:55;;;;;;;16.17;12.07;;;-0.30;84.50;;;;;;6250761;28;20467;-63
2021/12/23 04:25:58;;;;;;;14.27;12.10;;;-0.30;84.90;;;;;;6250534;28;20767;-63
2021/12/23 04:29:01;;;;;;;15.83;11.87;;;-0.30;85.10;;;;;;6250380;28;20573;-64
2021/12/23 04:32:06;;;;;;;14.90;13.13;;;-0.30;85.30;;;;;;6250716;28;20571;-62
2021/12/23 04:35:10;;;;;;;14.93;10.90;;;-0.30;85.30;;;;;;6250169;28;20482;-63
2021/12/23 04:38:15;;;;;;;15.93;11.47;;;-0.40;85.00;;;;;;6250464;28;20455;-63
2021/12/23 04:41:18;;;;;;;15.83;12.37;;;-0.40;85.20;;;;;;6250184;28;21072;-63
2021/12/23 04:44:21;;;;;;;18.53;13.73;;;-0.30;85.00;;;;;;6250117;28;20483;-63
2021/12/23 04:47:24;;;;;;;19.60;13.50;;;-0.30;84.90;;;;;;6249953;28;20458;-63
2021/12/23 04:50:27;;;;;;;15.80;11.90;;;-0.30;84.70;;;;;;6250166;28;20479;-63
2021/12/23 04:53:32;;;;;;;18.03;13.47;;;-0.30;84.30;;;;;;6249763;28;20842;-63
2021/12/23 04:56:35;;;;;;;18.17;10.93;;;-0.30;84.30;;;;;;6250038;28;20463;-63
2021/12/23 04:59:38;;;;;;;14.63;12.17;;;-0.30;83.90;;;;;;6250196;28;20517;-63
2021/12/23 05:02:42;;;;;;;17.10;12.77;;;-0.40;83.90;;;;;;6250268;28;20474;-63
2021/12/23 05:05:46;;;;;;;15.10;11.83;;;-0.40;83.80;;;;;;6249817;28;20470;-63
2021/12/23 05:08:50;;;;;;;16.00;12.90;;;-0.40;83.90;;;;;;6249572;28;20463;-63
2021/12/23 05:11:54;;;;;;;16.07;11.90;;;-0.50;84.10;;;;;;6272558;28;20461;-63
2021/12/23 05:14:57;;;;;;;18.50;12.97;;;-0.50;84.30;;;;;;6274431;28;20473;-63
2021/12/23 05:18:00;;;;;;;15.20;11.63;;;-0.50;84.60;;;;;;6262806;28;20470;-63
2021/12/23 05:21:05;;;;;;;14.47;11.33;;;-0.50;84.90;;;;;;6250109;28;20478;-63
2021/12/23 05:24:10;;;;;;;13.37;11.73;;;-0.60;84.90;;;;;;6267100;23;20466;-64
2021/12/23 05:27:13;;;;;;;17.63;13.40;;;-0.60;85.30;;;;;;6274469;28;20469;-63
2021/12/23 05:30:18;;;;;;;14.40;12.60;;;-0.60;85.50;;;;;;6278804;28;20532;-63
2021/12/23 05:33:21;;;;;;;15.77;13.00;;;-0.60;85.50;;;;;;6279237;28;20551;-64
2021/12/23 05:36:24;;;;;;;19.13;14.10;;;-0.60;85.50;;;;;;6278748;28;20814;-64
2021/12/23 05:39:28;;;;;;;20.23;13.60;;;-0.60;85.50;;;;;;6279093;28;20469;-64
2021/12/23 05:42:32;;;;;;;13.60;11.40;;;-0.50;86.40;;;;;;6279046;28;20469;-64
2021/12/23 05:45:35;;;;;;;16.67;11.63;;;-0.50;85.60;;;;;;6278886;28;20961;-64
2021/12/23 05:48:38;;;;;;;18.43;13.17;;;-0.60;85.50;;;;;;6269204;28;20950;-63
2021/12/23 05:51:41;;;;;;;19.43;13.50;;;-0.70;86.40;;;;;;6278828;28;20482;-63
2021/12/23 05:54:45;;;;;;;18.10;13.10;;;-0.70;87.10;;;;;;6278557;28;20484;-64
2021/12/23 05:57:49;;;;;;;17.93;12.63;;;-0.70;87.70;;;;;;6279001;28;20477;-64
2021/12/23 06:00:53;;;;;;;20.73;12.40;;;-0.70;87.80;;;;;;6278367;28;20477;-64
2021/12/23 06:03:56;;;;;;;14.83;12.73;;;-0.90;87.50;;;;;;6278580;28;20548;-63
2021/12/23 06:06:59;;;;;;;18.27;13.03;;;-1.00;88.00;;;;;;6280092;28;20477;-63
2021/12/23 06:10:05;;;;;;;18.73;13.30;;;-1.00;88.60;;;;;;6278639;28;20477;-63
2021/12/23 06:13:08;;;;;;;20.00;12.83;;;-1.00;89.30;;;;;;6277732;28;20978;-63
2021/12/23 06:16:11;;;;;;;19.93;14.07;;;-1.00;89.20;;;;;;6278395;28;20795;-63
2021/12/23 06:19:15;;;;;;;19.23;14.07;;;-1.00;89.50;;;;;;6278294;28;20480;-63
2021/12/23 06:22:19;;;;;;;21.97;13.03;;;-1.00;89.40;;;;;;6277948;28;20470;-63
2021/12/23 06:25:23;;;;;;;18.30;14.60;;;-0.90;89.60;;;;;;6278930;28;20531;-63
2021/12/23 06:28:26;;;;;;;20.43;14.67;;;-0.90;89.90;;;;;;6278190;28;20473;-63
2021/12/23 06:31:30;;;;;;;18.67;13.43;;;-0.90;90.00;;;;;;6278087;28;20477;-64
2021/12/23 06:34:33;;;;;;;18.00;13.80;;;-0.90;90.00;;;;;;6277619;28;20478;-64
2021/12/23 06:37:36;;;;;;;15.90;13.97;;;-1.00;90.30;;;;;;6277891;28;20801;-64
2021/12/23 06:40:41;;;;;;;19.93;15.13;;;-1.00;90.10;;;;;;6277783;28;20470;-64
2021/12/23 06:43:45;;;;;;;17.03;13.27;;;-0.90;90.10;;;;;;6281070;28;20482;-64
2021/12/23 06:46:48;;;;;;;24.17;14.73;;;-0.90;90.10;;;;;;6284646;28;20481;-64
2021/12/23 06:49:51;;;;;;;18.20;12.80;;;-0.90;90.00;;;;;;6277936;28;20965;-64
2021/12/23 06:52:55;;;;;;;19.80;14.13;;;-0.90;90.10;;;;;;6277705;28;20477;-64
2021/12/23 06:56:00;;;;;;;19.83;13.17;;;-0.90;90.10;;;;;;6278011;28;20477;-64
2021/12/23 06:59:03;;;;;;;19.37;14.07;;;-0.90;90.10;;;;;;6279224;28;20472;-64
2021/12/23 07:02:08;;;;;;;19.30;13.83;;;-0.80;90.10;;;;;;6277995;28;20600;-64
2021/12/23 07:05:12;;;;;;;21.90;13.37;;;-0.80;90.10;;;;;;6278064;28;20816;-64
2021/12/23 07:08:26;;;;;;;15.50;12.83;;;-0.80;90.10;;;;;;6277547;28;20820;-65
2021/12/23 07:11:30;;;;;;;19.53;13.80;;;-0.70;90.10;;;;;;6277160;28;20462;-64
2021/12/23 07:14:33;;;;;;;17.57;14.50;;;-0.70;90.00;;;;;;6278046;28;20484;-63
2021/12/23 07:17:37;;;;;;;25.13;15.63;;;-0.60;90.00;;;;;;6277493;28;20458;-63
2021/12/23 07:20:41;;;;;;;17.10;14.13;;;-0.60;89.60;;;;;;6276676;28;20469;-63
2021/12/23 07:23:44;;;;;;;21.87;14.03;;;-0.60;89.40;;;;;;6276119;28;20465;-63
2021/12/23 07:26:49;;;;;;;18.43;12.77;;;-0.50;89.40;;;;;;6276497;28;20992;-63
2021/12/23 07:29:52;;;;;;;23.67;14.60;;;-0.50;89.30;;;;;;6277214;28;20532;-63
2021/12/23 07:32:56;;;;;;;21.07;15.07;;;-0.40;89.20;;;;;;6276537;28;20466;-63
2021/12/23 07:35:59;;;;;;;21.23;14.50;;;-0.30;89.10;;;;;;6276425;28;20540;-64
2021/12/23 07:39:06;;;;;;;19.10;13.70;;;-0.20;88.60;;;;;;6275940;28;20493;-63
2021/12/23 07:42:32;;;;;;;20.47;15.10;;;-0.20;88.50;;;;;;6276365;28;20471;-64
2021/12/23 07:45:35;;;;;;;16.30;14.20;;;-0.10;87.50;;;;;;6276234;28;20508;-63
2021/12/23 07:48:38;;;;;;;17.73;13.90;;;-0.10;87.60;;;;;;6276371;28;20787;-63
2021/12/23 07:51:42;;;;;;;19.33;13.97;;;0.10;87.00;;;;;;6275802;28;20477;-63
2021/12/23 07:54:45;;;;;;;22.47;15.47;;;0.10;86.20;;;;;;6275693;28;20481;-63
2021/12/23 07:57:50;;;;;;;20.73;15.40;;;0.20;85.90;;;;;;6275357;28;20466;-63
2021/12/23 08:00:53;;;;;;;17.47;12.90;;;0.30;85.80;;;;;;6275442;28;20477;-64
2021/12/23 08:03:56;;;;;;;22.97;15.53;;;0.40;85.20;;;;;;6275521;28;20965;-63
2021/12/23 08:07:03;;;;;;;17.00;13.30;;;0.50;85.20;;;;;;6276413;28;20980;-63
2021/12/23 08:10:07;;;;;;;20.93;15.70;;;0.50;84.60;;;;;;6275895;28;20469;-63
2021/12/23 08:13:12;;;;;;;16.60;13.60;;;0.70;84.40;;;;;;6277427;28;20974;-63
2021/12/23 08:16:15;;;;;;;20.93;15.60;;;0.80;84.10;;;;;;6275655;28;20474;-63
2021/12/23 08:19:18;;;;;;;17.93;13.70;;;0.90;83.70;;;;;;6275466;28;20811;-63
2021/12/23 08:22:22;;;;;;;14.90;11.60;;;1.10;82.80;;;;;;6276787;28;20473;-63
2021/12/23 08:25:26;;;;;;;17.83;13.93;;;1.20;82.40;;;;;;6276080;28;20478;-63
2021/12/23 08:28:31;;;;;;;16.80;13.70;;;1.30;81.10;;;;;;6276943;28;20857;-64
2021/12/23 08:31:35;;;;;;;21.70;14.20;;;1.40;81.40;;;;;;6276852;28;20478;-63
2021/12/23 08:34:38;;;;;;;18.67;13.70;;;1.60;81.00;;;;;;6276601;28;20474;-63
2021/12/23 08:37:45;;;;;;;21.07;13.80;;;1.70;79.80;;;;;;6276240;28;20549;-63
2021/12/23 08:40:48;;;;;;;24.87;15.30;;;2.00;79.00;;;;;;6276367;28;20581;-63
2021/12/23 08:43:53;;;;;;;15.00;12.60;;;2.20;78.20;;;;;;6275272;28;20497;-64
2021/12/23 08:46:56;;;;;;;16.20;13.67;;;2.30;77.00;;;;;;6275604;28;20470;-64
2021/12/23 08:49:59;;;;;;;21.30;12.90;;;2.30;75.80;;;;;;6275289;28;20478;-63
2021/12/23 08:53:04;;;;;;;17.80;13.80;;;2.50;75.90;;;;;;6275315;28;20490;-63
2021/12/23 08:56:08;;;;;;;18.63;12.60;;;2.60;75.20;;;;;;6275013;28;20810;-64
2021/12/23 08:59:13;;;;;;;16.63;12.27;;;2.60;74.60;;;;;;6270803;28;20984;-64
2021/12/23 09:02:17;;;;;;;18.10;12.67;;;2.60;73.70;;;;;;6271555;28;20461;-64
2021/12/23 09:05:21;;;;;;;14.67;11.77;;;2.60;73.10;;;;;;6279632;28;20523;-64
2021/12/23 09:08:25;;;;;;;13.13;11.57;;;2.60;71.70;;;;;;6279695;28;20450;-64
2021/12/23 09:11:29;;;;;;;14.47;12.13;;;2.40;71.50;;;;;;6279868;28;20500;-64
2021/12/23 09:14:34;;;;;;;13.50;10.47;;;2.40;71.60;;;;;;6279838;28;20501;-64
2021/12/23 09:17:37;;;;;;;15.30;11.70;;;2.40;71.50;;;;;;6279615;28;20466;-63
2021/12/23 09:20:40;;;;;;;17.10;13.00;;;2.50;71.20;;;;;;6280122;28;20547;-63
2021/12/23 09:23:44;;;;;;;17.30;11.50;;;2.70;71.60;;;;;;6279464;28;20552;-64
2021/12/23 09:26:53;;;;;;;15.30;12.13;;;2.80;71.40;;;;;;6279359;28;20477;-64
2021/12/23 09:33:32;;;;;;;16.70;12.37;;;3.00;69.70;;;;;;6227465;28;20479;-63
2021/12/23 09:36:36;;;;;;;15.10;12.00;;;3.30;68.90;;;;;;6228093;28;20998;-64
2021/12/23 09:39:39;;;;;;;18.00;12.03;;;3.40;68.90;;;;;;6276458;28;20461;-64
2021/12/23 09:42:45;;;;;;;15.70;10.97;;;3.40;68.20;;;;;;6278768;28;20489;-64
2021/12/23 09:45:49;;;;;;;14.73;11.10;;;3.40;68.10;;;;;;6279181;28;20484;-64
2021/12/23 09:49:00;;;;;;;17.33;12.40;;;3.40;67.90;;;;;;6278884;28;20527;-63
2021/12/23 09:52:06;;;;;;;16.90;12.17;;;3.50;68.20;;;;;;6278731;28;20481;-63
2021/12/23 09:55:11;;;;;;;18.33;12.13;;;3.50;67.90;;;;;;6278131;28;20480;-63
2021/12/23 09:58:15;;;;;;;19.93;13.20;;;3.60;67.00;;;;;;6278525;28;20824;-63
2021/12/23 10:01:19;;;;;;;17.40;12.43;;;3.70;66.80;;;;;;6278656;28;20478;-63
2021/12/23 10:04:23;;;;;;;16.10;11.43;;;3.70;66.60;;;;;;6278355;28;20661;-62
2021/12/23 10:07:27;;;;;;;15.67;12.03;;;3.70;66.40;;;;;;6278506;28;20474;-62
2021/12/23 10:10:35;;;;;;;17.37;12.20;;;3.90;66.10;;;;;;6278423;28;20478;-62
2021/12/23 10:30:49;;;;;;;20.60;15.67;;;4.00;67.50;;;;;;6277954;28;20474;-63
2021/12/23 10:37:25;;;;;;;26.67;18.50;;;3.40;69.00;;;;;;6277353;28;20470;-63
2021/12/23 10:40:30;;;;;;;21.33;17.57;;;3.30;70.30;;;;;;6277561;28;20541;-62
2021/12/23 10:43:36;;;;;;;26.80;17.70;;;3.10;71.20;;;;;;6277035;28;20470;-62
2021/12/23 10:46:42;;;;;;;21.17;16.33;;;3.20;71.80;;;;;;6277511;28;20485;-63
2021/12/23 10:50:22;;;;;;;31.50;18.40;;;3.40;71.00;;;;;;6277472;28;20977;-63
2021/12/23 10:53:44;;;;;;;26.20;18.77;;;3.40;71.40;;;;;;6276902;28;20486;-63
2021/12/23 11:00:20;;;;;;;26.63;20.10;;;3.10;71.40;;;;;;6260214;28;20470;-62
2021/12/23 11:03:27;;;;;;;26.33;19.53;;;3.20;71.80;;;;;;6276671;28;20811;-62
2021/12/23 11:06:37;;;;;;;27.07;18.03;;;3.10;71.90;;;;;;6267816;28;20477;-62
2021/12/23 11:10:00;;;;;;;26.80;16.83;;;3.00;72.10;;;;;;6277109;28;20478;-62
2021/12/23 11:37:09;;;;;;;26.37;17.50;;;4.40;67.90;;;;;;6252040;28;20476;-63
2021/12/23 11:40:26;;;;;;;26.00;17.10;;;4.50;67.30;;;;;;6252106;28;20470;-62
2021/12/23 11:43:47;;;;;;;21.07;17.30;;;4.40;67.10;;;;;;6251334;28;20486;-63
2021/12/23 11:46:54;;;;;;;21.80;16.73;;;4.30;67.10;;;;;;6251772;28;21001;-63
2021/12/23 11:49:58;;;;;;;23.67;18.03;;;4.30;66.20;;;;;;6251444;28;20475;-63
2021/12/23 11:53:03;;;;;;;22.80;16.03;;;4.40;66.50;;;;;;6251164;28;20483;-63
2021/12/23 11:56:11;;;;;;;25.30;16.57;;;4.50;66.50;;;;;;6251283;28;20482;-63
2021/12/23 11:59:16;;;;;;;33.33;17.73;;;4.40;65.40;;;;;;6251693;28;21150;-63
2021/12/23 12:02:21;;;;;;;27.60;18.10;;;4.20;66.20;;;;;;6251223;28;20907;-63
2021/12/23 12:05:25;;;;;;;21.20;17.03;;;4.00;67.00;;;;;;6251455;28;20463;-63
2021/12/23 12:08:28;;;;;;;21.80;16.00;;;3.70;67.80;;;;;;6250843;28;20793;-63
2021/12/23 12:11:32;;;;;;;28.70;19.20;;;3.60;68.60;;;;;;6270542;28;20457;-62
2021/12/23 12:14:42;;;;;;;22.10;17.17;;;3.50;69.10;;;;;;6275587;28;20482;-62
2021/12/23 12:17:45;;;;;;;29.23;19.00;;;3.50;69.20;;;;;;6275536;28;20462;-63
2021/12/23 12:20:52;;;;;;;24.73;17.40;;;3.50;69.70;;;;;;6275480;28;20462;-63
2021/12/23 12:24:13;;;;;;;26.80;18.20;;;3.60;69.70;;;;;;6275107;28;20988;-62
2021/12/23 12:27:26;;;;;;;23.77;17.97;;;3.60;68.80;;;;;;6275039;28;20962;-63
2021/12/23 12:30:37;;;;;;;23.07;16.80;;;3.60;69.20;;;;;;6275755;28;20470;-63
2021/12/23 12:34:05;;;;;;;32.57;17.10;;;3.60;69.20;;;;;;6275319;28;20527;-63
2021/12/23 12:37:09;;;;;;;22.20;16.80;;;3.60;69.70;;;;;;6274470;28;20914;-63
2021/12/23 12:40:12;;;;;;;21.73;16.43;;;3.70;70.10;;;;;;6274814;28;21047;-63
2021/12/23 12:47:07;;;;;;;23.80;18.50;;;3.80;69.40;;;;;;6301184;28;20567;-64
2021/12/23 12:50:18;;;;;;;29.57;20.30;;;3.40;69.20;;;;;;6296582;28;20465;-62
2021/12/23 12:53:22;;;;;;;26.47;18.70;;;3.50;70.90;;;;;;6296609;28;20454;-63
2021/12/23 12:56:27;;;;;;;24.43;16.43;;;3.50;70.20;;;;;;6272185;28;20484;-63
2021/12/23 12:59:35;;;;;;;28.00;18.00;;;3.40;69.80;;;;;;6272023;28;20755;-63
2021/12/23 13:02:39;;;;;;;27.47;18.40;;;3.30;70.70;;;;;;6271853;28;20829;-62
2021/12/23 13:05:45;;;;;;;28.00;18.03;;;3.10;70.80;;;;;;6271466;28;20470;-63
2021/12/23 13:08:48;;;;;;;29.60;18.30;;;2.90;71.60;;;;;;6272042;28;20462;-63
2021/12/23 13:11:51;;;;;;;27.60;17.47;;;2.80;72.60;;;;;;6266930;28;20463;-62
2021/12/23 13:15:15;;;;;;;32.50;16.43;;;2.50;73.40;;;;;;6271513;28;20477;-62
2021/12/23 13:18:21;;;;;;;32.23;19.80;;;2.40;74.00;;;;;;6271331;28;20485;-64
2021/12/23 13:21:26;;;;;;;25.67;15.53;;;2.40;74.10;;;;;;6271320;28;20906;-64
2021/12/23 13:24:30;;;;;;;27.13;18.33;;;2.40;74.10;;;;;;6270737;28;20833;-62
2021/12/23 13:27:33;;;;;;;21.40;17.10;;;2.40;74.30;;;;;;6270833;28;20989;-63
2021/12/23 13:30:39;;;;;;;22.83;17.63;;;2.40;74.40;;;;;;6270941;28;20555;-63
2021/12/23 13:33:47;;;;;;;21.27;17.13;;;2.30;74.30;;;;;;6270646;28;20477;-63
2021/12/23 13:36:52;;;;;;;26.17;17.50;;;2.30;74.60;;;;;;6270292;28;21001;-64
2021/12/23 13:39:55;;;;;;;23.50;16.53;;;2.30;74.50;;;;;;6270982;28;20945;-63
2021/12/23 13:42:59;;;;;;;23.30;17.27;;;2.20;74.60;;;;;;6270406;28;20477;-63
2021/12/23 13:46:05;;;;;;;22.10;17.23;;;2.20;74.80;;;;;;6270473;28;20540;-63
2021/12/23 13:49:10;;;;;;;21.73;16.03;;;2.20;74.70;;;;;;6270440;28;20470;-63
2021/12/23 13:52:21;;;;;;;24.70;18.20;;;2.20;75.70;;;;;;6270836;28;20501;-63
2021/12/23 13:55:26;;;;;;;23.77;17.73;;;2.20;74.70;;;;;;6268685;28;20474;-63
2021/12/23 13:58:29;;;;;;;25.83;17.97;;;2.20;75.00;;;;;;6253608;28;20831;-63
2021/12/23 14:01:32;;;;;;;23.83;16.30;;;2.20;74.90;;;;;;6254004;28;20482;-63
2021/12/23 14:04:49;;;;;;;22.07;17.17;;;2.20;74.80;;;;;;6253155;28;20822;-63
2021/12/23 14:07:53;;;;;;;26.93;15.43;;;2.20;74.70;;;;;;6253830;28;20951;-63
2021/12/23 14:10:57;;;;;;;23.83;15.67;;;2.10;74.70;;;;;;6253283;28;20529;-63
2021/12/23 14:14:01;;;;;;;22.70;15.23;;;2.00;75.20;;;;;;6253081;28;20490;-63
2021/12/23 14:17:04;;;;;;;23.67;17.23;;;2.00;76.00;;;;;;6253196;28;20476;-63
2021/12/23 14:23:39;;;;;;;23.10;18.03;;;2.00;75.70;;;;;;6253257;28;20470;-63
2021/12/23 14:26:42;;;;;;;24.80;16.50;;;1.90;75.90;;;;;;6252673;28;20983;-64
2021/12/23 14:29:48;;;;;;;33.47;19.50;;;1.70;76.20;;;;;;6253468;28;20467;-63
2021/12/23 14:33:08;;;;;;;29.23;18.60;;;1.60;76.70;;;;;;6252922;28;20486;-63
2021/12/23 14:36:17;;;;;;;23.20;15.83;;;1.60;77.00;;;;;;6253185;28;20479;-63
2021/12/23 14:39:26;;;;;;;22.70;16.37;;;1.60;76.90;;;;;;6253084;28;20978;-63
2021/12/23 14:42:29;;;;;;;29.17;18.70;;;1.50;77.20;;;;;;6252655;28;20533;-63
2021/12/23 14:45:32;;;;;;;23.80;16.00;;;1.60;77.50;;;;;;6252091;28;20498;-63
2021/12/23 14:48:56;;;;;;;20.53;14.70;;;1.60;77.60;;;;;;6252969;28;20463;-63
2021/12/23 14:52:16;;;;;;;20.27;14.93;;;1.60;77.60;;;;;;6252607;28;20482;-63
2021/12/23 14:55:21;;;;;;;20.73;16.07;;;1.60;77.60;;;;;;6252263;28;21029;-63
2021/12/23 14:58:25;;;;;;;25.20;15.90;;;1.50;78.20;;;;;;6252550;28;20808;-64
2021/12/23 15:01:28;;;;;;;21.33;14.00;;;1.40;78.20;;;;;;6252791;28;20486;-63
2021/12/23 15:04:32;;;;;;;24.13;15.00;;;1.40;78.60;;;;;;6252510;28;20502;-63
2021/12/23 15:08:00;;;;;;;29.40;18.07;;;1.50;78.80;;;;;;6251421;28;20479;-63
2021/12/23 15:11:07;;;;;;;21.17;14.93;;;1.40;79.10;;;;;;6252253;28;20489;-64
2021/12/23 15:14:16;;;;;;;24.47;15.67;;;1.40;79.10;;;;;;6251939;28;20923;-63
2021/12/23 15:17:25;;;;;;;30.23;16.53;;;1.30;79.00;;;;;;6251956;28;20822;-63
2021/12/23 15:20:31;;;;;;;24.10;14.90;;;1.30;79.40;;;;;;6251365;28;20887;-63
2021/12/23 15:23:44;;;;;;;19.03;15.23;;;1.20;79.80;;;;;;6252339;28;20478;-63
2021/12/23 15:26:53;;;;;;;25.60;16.60;;;1.20;80.20;;;;;;6252010;28;20463;-63
2021/12/23 15:30:01;;;;;;;24.70;16.47;;;1.10;80.50;;;;;;6251734;28;20471;-63
2021/12/23 15:33:05;;;;;;;24.50;17.70;;;1.10;80.50;;;;;;6251953;28;20546;-63
2021/12/23 15:36:12;;;;;;;28.50;17.40;;;1.10;80.50;;;;;;6250946;28;21005;-63
2021/12/23 15:39:26;;;;;;;23.23;16.60;;;1.00;81.00;;;;;;6251757;28;20965;-62
2021/12/23 15:42:29;;;;;;;21.23;16.33;;;1.00;81.10;;;;;;6251677;28;20471;-62
2021/12/23 15:45:34;;;;;;;23.83;16.80;;;1.00;81.30;;;;;;6251592;28;20955;-62
2021/12/23 15:48:40;;;;;;;25.17;17.37;;;1.00;81.40;;;;;;6251286;28;20978;-62
2021/12/23 15:51:43;;;;;;;28.00;18.33;;;1.00;81.60;;;;;;6251178;28;20471;-62
2021/12/23 15:54:49;;;;;;;24.40;16.63;;;1.10;81.70;;;;;;6250922;28;20482;-62
2021/12/23 15:57:52;;;;;;;23.00;15.67;;;1.10;81.20;;;;;;6251173;28;20486;-63
2021/12/23 16:00:55;;;;;;;22.50;17.67;;;1.10;81.50;;;;;;6250963;28;20481;-63
2021/12/23 16:03:59;;;;;;;20.60;15.10;;;1.00;81.40;;;;;;6250770;28;20471;-63
2021/12/23 16:07:20;;;;;;;25.33;17.50;;;1.10;81.70;;;;;;6250226;28;20478;-62
2021/12/23 16:10:26;;;;;;;20.33;15.57;;;1.10;81.60;;;;;;6250873;28;20467;-62
2021/12/23 16:13:30;;;;;;;30.53;17.43;;;1.10;81.60;;;;;;6251268;28;20478;-63
2021/12/23 16:16:33;;;;;;;22.73;16.77;;;1.10;81.90;;;;;;6251253;28;20471;-63
2021/12/23 16:19:37;;;;;;;24.93;17.30;;;1.10;82.10;;;;;;6226311;28;20464;-63
2021/12/23 16:22:40;;;;;;;21.07;16.20;;;1.10;81.70;;;;;;6213308;28;20803;-63
2021/12/23 16:25:45;;;;;;;25.97;16.90;;;1.10;81.80;;;;;;6225907;28;20491;-63
2021/12/23 16:28:51;;;;;;;21.60;17.83;;;1.10;82.00;;;;;;6226420;28;20480;-63
2021/12/23 16:31:54;;;;;;;23.40;17.20;;;1.00;82.10;;;;;;6225938;28;20955;-62
2021/12/23 16:34:58;;;;;;;24.33;16.63;;;1.00;82.20;;;;;;6225589;28;20804;-63
2021/12/23 16:38:01;;;;;;;25.47;17.03;;;0.90;82.00;;;;;;6226166;28;20767;-63
2021/12/23 16:41:09;;;;;;;25.13;17.07;;;0.90;82.50;;;;;;6225905;28;20488;-63
2021/12/23 16:44:12;;;;;;;30.07;17.43;;;1.00;82.60;;;;;;6225502;28;20495;-63
2021/12/23 16:47:16;;;;;;;21.77;15.93;;;0.90;82.70;;;;;;6225920;28;20494;-63
2021/12/23 16:50:20;;;;;;;25.50;17.07;;;0.90;82.80;;;;;;6225225;28;20455;-63
2021/12/23 16:53:24;;;;;;;25.67;16.43;;;0.90;83.10;;;;;;6225529;28;20533;-63